FDK Airport (Frederick Muni) Information

FAA: FDK - ICAO: KFDK

FDK Airport Location

State Maryland
County Frederick
City Frederick
FDK Airport is 0 miles east of Frederick, MD.
Latitude 39-25-03.2460N
Longitude 077-22-27.4700W
Elevation 306ft

KFDK Airport METARs

METAR KFDK 080555Z AUTO 00000KT 10SM CLR 00/M03 A3014 RMK AO2
Altimeter 30.14"
Temperature 0.0°C (32.0°F)
Wind 0° at 0KT
Clouds Skies are clear.
Visibility 10.0mi
Time observed: 2021-12-08T05:55:00Z

FDK Airport Details

Status Operational
Activation December 2003
Ownership Public
Usage Public
Chart WASHINGTON
ATC on-site Yes
Beacon schedule sunset-sunrise
Beacon color clear green

FDK Airport Contacts

Owner CITY OF FREDERICK
Owner address 101 N COURT ST, FREDERICK, MD 21701
Owner phone 301-600-1380
Manager DAN WOLF
Manager address 319A SAVANNAH RD, ESSEX, MD 21221
Manager phone 410-952-1294

FDK Airport (Frederick Muni) Radio Frequencies

FDK (Airport) Radio Frequencies

UNICOM 122.95
Common traffic advisory frequency (CTAF) 132.4